Time;durP1;ratioP1;P1;durP2;ratioP2;P2;SDS_P1;SDS_P2;PMS_P1;PMS_P2;Temp;Humidity;BMP_temperature;BMP_pressure;BME280_temperature;BME280_humidity;BME280_pressure;Samples;Min_cycle;Max_cycle;Signal;HPM_P1;HPM_P2
2022/01/31 00:00:11;;;;;;;3.80;2.05;;;1.50;99.90;;;;;;5073990;28;20074;-70
2022/01/31 00:02:37;;;;;;;3.85;1.85;;;1.50;99.90;;;;;;5074536;28;20383;-71
2022/01/31 00:05:05;;;;;;;4.22;2.08;;;1.50;99.90;;;;;;5073650;28;20103;-71
2022/01/31 00:07:31;;;;;;;4.70;2.17;;;1.50;99.90;;;;;;5074799;28;20395;-69
2022/01/31 00:09:57;;;;;;;4.67;2.23;;;1.50;99.90;;;;;;5074657;28;20032;-71
2022/01/31 00:12:26;;;;;;;3.73;1.80;;;1.50;99.90;;;;;;5074673;28;20757;-72
2022/01/31 00:14:54;;;;;;;3.08;1.50;;;1.50;99.90;;;;;;5073443;28;20016;-71
2022/01/31 00:17:20;;;;;;;2.75;1.50;;;1.50;99.90;;;;;;5074426;28;20029;-71
2022/01/31 00:19:46;;;;;;;2.97;1.20;;;1.40;99.90;;;;;;5072140;28;20429;-71
2022/01/31 00:22:13;;;;;;;2.13;1.33;;;1.40;99.90;;;;;;5073881;28;20039;-71
2022/01/31 00:24:40;;;;;;;1.88;1.15;;;1.40;99.90;;;;;;5074026;28;20024;-71
2022/01/31 00:27:08;;;;;;;3.55;1.60;;;1.40;99.90;;;;;;5074768;28;20098;-71
2022/01/31 00:29:34;;;;;;;2.67;1.23;;;1.40;99.90;;;;;;5071857;28;20033;-71
2022/01/31 00:31:59;;;;;;;2.90;1.27;;;1.40;99.90;;;;;;5073992;28;20047;-70
2022/01/31 00:34:25;;;;;;;3.77;1.57;;;1.30;99.90;;;;;;5073249;28;20419;-71
2022/01/31 00:36:52;;;;;;;1.98;1.25;;;1.30;99.90;;;;;;5073707;28;20093;-73
2022/01/31 00:39:18;;;;;;;3.65;1.70;;;1.30;99.90;;;;;;5073043;28;20041;-71
2022/01/31 00:41:44;;;;;;;1.63;1.20;;;1.30;99.90;;;;;;5073050;28;20028;-71
2022/01/31 00:46:47;;;;;;;3.50;1.33;;;1.30;99.90;;;;;;5074464;28;20029;-71
2022/01/31 00:49:23;;;;;;;2.95;1.20;;;1.30;99.90;;;;;;5071291;28;20511;-71
2022/01/31 00:51:49;;;;;;;1.17;0.93;;;1.30;99.90;;;;;;5070861;28;20044;-71
2022/01/31 00:54:15;;;;;;;2.78;1.58;;;1.30;99.90;;;;;;5070450;28;20476;-73
2022/01/31 00:56:41;;;;;;;2.13;1.20;;;1.30;99.90;;;;;;5072401;28;20033;-72
2022/01/31 00:59:06;;;;;;;3.27;1.27;;;1.30;99.90;;;;;;5071865;28;20495;-71
2022/01/31 01:01:32;;;;;;;3.03;1.20;;;1.30;99.90;;;;;;5072736;28;20123;-72
2022/01/31 01:03:58;;;;;;;2.47;1.37;;;1.30;99.90;;;;;;5072704;28;20032;-71
2022/01/31 01:06:24;;;;;;;2.07;1.10;;;1.30;99.90;;;;;;5072090;28;20477;-71
2022/01/31 01:08:49;;;;;;;1.83;1.10;;;1.30;99.90;;;;;;5087036;28;20033;-72
2022/01/31 01:11:15;;;;;;;2.23;1.20;;;1.30;99.90;;;;;;5086946;28;20036;-71
2022/01/31 01:13:41;;;;;;;2.53;1.10;;;1.30;99.90;;;;;;5070544;28;20498;-71
2022/01/31 01:16:06;;;;;;;2.60;1.10;;;1.20;99.90;;;;;;5069379;28;20551;-72
2022/01/31 01:18:32;;;;;;;1.67;0.90;;;1.30;99.90;;;;;;5070958;28;20130;-71
2022/01/31 01:20:58;;;;;;;1.23;0.93;;;1.20;99.90;;;;;;5070405;28;20027;-73
2022/01/31 01:23:24;;;;;;;1.87;1.07;;;1.20;99.90;;;;;;5072149;28;20020;-70
2022/01/31 01:25:51;;;;;;;3.00;1.30;;;1.20;99.90;;;;;;5069492;28;20024;-71
2022/01/31 01:28:16;;;;;;;1.42;0.80;;;1.20;99.90;;;;;;5070201;28;20034;-69
2022/01/31 01:30:42;;;;;;;2.00;1.03;;;1.20;99.90;;;;;;5071058;28;20031;-70
2022/01/31 01:33:18;;;;;;;2.13;1.10;;;1.20;99.90;;;;;;5071772;28;20035;-70
2022/01/31 01:35:46;;;;;;;2.28;0.95;;;1.20;99.90;;;;;;5070568;28;20154;-71
2022/01/31 01:38:15;;;;;;;1.80;0.85;;;1.20;99.90;;;;;;5072366;28;20028;-71
2022/01/31 01:40:42;;;;;;;1.40;0.80;;;1.10;99.90;;;;;;5071527;28;20016;-71
2022/01/31 01:43:08;;;;;;;1.88;1.00;;;1.20;99.90;;;;;;5072216;28;20075;-71
2022/01/31 01:45:35;;;;;;;1.73;1.00;;;1.10;99.90;;;;;;5070711;28;20063;-71
2022/01/31 01:48:02;;;;;;;2.33;1.00;;;1.20;99.90;;;;;;5071631;28;20112;-71
2022/01/31 01:50:27;;;;;;;2.22;1.23;;;1.20;99.90;;;;;;4940486;28;3757544;-72
2022/01/31 01:52:54;;;;;;;2.50;1.07;;;1.20;99.90;;;;;;5072472;28;20035;-70
2022/01/31 01:55:21;;;;;;;1.83;1.27;;;1.10;99.90;;;;;;5071728;28;20039;-70
2022/01/31 01:57:47;;;;;;;2.08;1.17;;;1.20;99.90;;;;;;5072642;28;20555;-70
2022/01/31 02:00:18;;;;;;;1.98;0.93;;;1.20;99.90;;;;;;5072311;28;20028;-72
2022/01/31 02:02:45;;;;;;;3.03;1.42;;;1.30;99.90;;;;;;5071164;28;20025;-72
2022/01/31 02:05:11;;;;;;;;;;;1.30;99.90;;;;;;5070411;28;20037;-71
2022/01/31 02:07:37;;;;;;;1.42;0.90;;;1.30;99.90;;;;;;5070350;28;19909;-71
2022/01/31 02:10:04;;;;;;;;;;;1.30;99.90;;;;;;5071914;28;20491;-70
2022/01/31 02:12:41;;;;;;;1.63;1.03;;;1.30;99.90;;;;;;5071825;28;20355;-71
2022/01/31 02:15:08;;;;;;;1.67;0.90;;;1.30;99.90;;;;;;5072080;28;20078;-71
2022/01/31 02:17:35;;;;;;;2.60;1.23;;;1.30;99.90;;;;;;5072612;28;20024;-71
2022/01/31 02:20:01;;;;;;;2.28;1.02;;;1.30;99.90;;;;;;5071174;28;20150;-70
2022/01/31 02:22:27;;;;;;;2.60;1.00;;;1.30;99.90;;;;;;5071970;28;20540;-71
2022/01/31 02:24:52;;;;;;;2.13;0.87;;;1.30;99.90;;;;;;5069612;28;20264;-70
2022/01/31 02:27:29;;;;;;;2.03;1.10;;;1.20;99.90;;;;;;5071750;28;20031;-71
2022/01/31 02:29:55;;;;;;;1.83;0.93;;;1.20;99.90;;;;;;5071015;28;20414;-71
2022/01/31 02:32:22;;;;;;;4.63;1.48;;;1.20;99.90;;;;;;5071083;28;20075;-70
2022/01/31 02:34:49;;;;;;;2.30;1.23;;;1.20;99.90;;;;;;5070175;28;20082;-71
2022/01/31 02:37:16;;;;;;;4.63;1.20;;;1.20;99.90;;;;;;5072325;28;20047;-71
2022/01/31 02:39:42;;;;;;;4.75;1.70;;;1.20;99.90;;;;;;5071592;28;20032;-72
2022/01/31 02:42:08;;;;;;;1.73;0.95;;;1.20;99.90;;;;;;5071065;28;20033;-71
2022/01/31 02:44:38;;;;;;;1.70;1.08;;;1.20;99.90;;;;;;5070704;28;20484;-71
2022/01/31 02:47:09;;;;;;;1.40;1.08;;;1.20;99.90;;;;;;5071170;28;20103;-72
2022/01/31 02:49:44;;;;;;;3.00;1.20;;;1.20;99.90;;;;;;5070633;28;20365;-72
2022/01/31 02:52:13;;;;;;;2.28;1.00;;;1.20;99.90;;;;;;5068991;28;20123;-71
2022/01/31 02:54:38;;;;;;;2.40;1.10;;;1.20;99.90;;;;;;5071286;28;20020;-71
2022/01/31 02:57:04;;;;;;;1.97;1.17;;;1.20;99.90;;;;;;5071854;28;20033;-71
2022/01/31 02:59:31;;;;;;;3.83;1.60;;;1.20;99.90;;;;;;5070890;28;20032;-71
2022/01/31 03:01:57;;;;;;;3.67;1.65;;;1.20;99.90;;;;;;5085935;28;20115;-71
2022/01/31 03:04:23;;;;;;;2.75;1.20;;;1.20;99.90;;;;;;5071126;28;20031;-72
2022/01/31 03:06:49;;;;;;;3.37;1.50;;;1.20;99.90;;;;;;5071766;28;20036;-72
2022/01/31 03:09:16;;;;;;;3.50;1.40;;;1.20;99.90;;;;;;5071279;28;20032;-71
2022/01/31 03:11:42;;;;;;;3.17;1.33;;;1.20;99.90;;;;;;5070817;28;20534;-71
2022/01/31 03:14:09;;;;;;;3.40;1.33;;;1.20;99.90;;;;;;5070336;28;20056;-72
2022/01/31 03:16:40;;;;;;;2.63;1.00;;;1.20;99.90;;;;;;5071011;28;20073;-71
2022/01/31 03:19:09;;;;;;;2.60;1.30;;;1.20;99.90;;;;;;5068870;28;20040;-71
2022/01/31 03:21:36;;;;;;;3.63;1.60;;;1.20;99.90;;;;;;5069097;28;20038;-71
2022/01/31 03:24:02;;;;;;;;;;;1.20;99.90;;;;;;5086800;28;20078;-72
2022/01/31 03:26:27;;;;;;;2.40;1.27;;;1.20;99.90;;;;;;5071370;28;19909;-71
2022/01/31 03:28:53;;;;;;;2.87;1.33;;;1.20;99.90;;;;;;5071285;28;20039;-72
2022/01/31 03:31:21;;;;;;;1.85;1.13;;;1.10;99.90;;;;;;5070193;28;20059;-71
2022/01/31 03:33:48;;;;;;;3.47;1.30;;;1.10;99.90;;;;;;5085958;28;20029;-71
2022/01/31 03:36:14;;;;;;;2.15;1.10;;;1.10;99.90;;;;;;5070155;28;20115;-73
2022/01/31 03:38:41;;;;;;;2.20;1.38;;;1.10;99.90;;;;;;5070332;28;20567;-73
2022/01/31 03:41:16;;;;;;;2.65;1.15;;;1.00;99.90;;;;;;5069842;28;20341;-71
2022/01/31 03:43:42;;;;;;;1.52;1.25;;;1.00;99.90;;;;;;5070894;28;20379;-72
2022/01/31 03:46:08;;;;;;;2.22;1.13;;;1.00;99.90;;;;;;5085933;28;20374;-72
2022/01/31 03:48:34;;;;;;;2.57;1.23;;;0.90;99.90;;;;;;5070717;28;20056;-72
2022/01/31 03:51:02;;;;;;;3.92;1.63;;;1.00;99.90;;;;;;5068576;28;20035;-72
2022/01/31 03:53:29;;;;;;;3.20;1.70;;;1.00;99.90;;;;;;5070121;28;20382;-71
2022/01/31 03:55:54;;;;;;;5.55;1.60;;;1.00;99.90;;;;;;5068329;28;20025;-71
2022/01/31 03:58:20;;;;;;;1.50;1.07;;;1.00;99.90;;;;;;5070241;28;20040;-72
2022/01/31 04:00:47;;;;;;;3.95;1.70;;;1.00;99.90;;;;;;5062131;28;20500;-72
2022/01/31 04:03:13;;;;;;;1.92;1.13;;;1.00;99.90;;;;;;5056199;28;20043;-71
2022/01/31 04:05:39;;;;;;;3.77;1.30;;;1.00;99.90;;;;;;5069494;28;20036;-71
2022/01/31 04:08:05;;;;;;;3.10;1.42;;;1.00;99.90;;;;;;5070511;28;20020;-72
2022/01/31 04:10:31;;;;;;;2.50;1.25;;;1.00;99.90;;;;;;5068713;28;20190;-72
2022/01/31 04:12:57;;;;;;;3.47;1.27;;;1.00;99.90;;;;;;5069127;28;20036;-72
2022/01/31 04:15:23;;;;;;;1.88;1.20;;;1.00;99.90;;;;;;5069164;28;20037;-70
2022/01/31 04:17:49;;;;;;;2.07;1.03;;;1.00;99.90;;;;;;5070648;28;20499;-72
2022/01/31 04:20:15;;;;;;;2.73;1.27;;;1.00;99.90;;;;;;5070268;28;20286;-72
2022/01/31 04:23:17;;;;;;;;;;;1.00;99.90;;;;;;5071005;28;20016;-72
2022/01/31 04:28:30;;;;;;;3.47;1.35;;;1.00;99.90;;;;;;5070744;28;20028;-72
2022/01/31 04:33:23;;;;;;;2.35;0.98;;;1.00;99.90;;;;;;5051001;28;20159;-71
2022/01/31 04:35:49;;;;;;;2.42;1.20;;;1.00;99.90;;;;;;5065082;28;20454;-71
2022/01/31 04:38:16;;;;;;;2.45;1.25;;;1.00;99.90;;;;;;5069554;28;20017;-71
2022/01/31 04:40:42;;;;;;;1.90;1.10;;;1.00;99.90;;;;;;5065036;28;20041;-72
2022/01/31 04:43:07;;;;;;;3.17;1.03;;;1.00;99.90;;;;;;5052548;28;20044;-70
2022/01/31 04:45:33;;;;;;;1.97;0.97;;;1.10;99.90;;;;;;5065786;28;20029;-72
2022/01/31 04:47:59;;;;;;;4.00;0.97;;;1.00;99.90;;;;;;5073462;28;20502;-73
2022/01/31 04:50:25;;;;;;;3.47;1.17;;;1.00;99.90;;;;;;5072879;28;20123;-73
2022/01/31 04:52:50;;;;;;;3.30;1.50;;;1.00;99.90;;;;;;5074524;28;20055;-72
2022/01/31 04:55:16;;;;;;;3.60;1.37;;;1.00;99.90;;;;;;5089182;28;20564;-72
2022/01/31 04:57:43;;;;;;;3.22;1.52;;;1.00;99.90;;;;;;5072786;28;20063;-72
2022/01/31 05:00:09;;;;;;;3.30;1.40;;;1.00;99.90;;;;;;5072784;28;20039;-71
2022/01/31 05:02:36;;;;;;;4.55;1.60;;;0.90;99.90;;;;;;5072690;28;20025;-71
2022/01/31 05:05:03;;;;;;;4.00;1.60;;;0.90;99.90;;;;;;5071343;28;20480;-72
2022/01/31 05:07:29;;;;;;;3.25;1.50;;;0.90;99.90;;;;;;5073640;28;20025;-72
2022/01/31 05:09:54;;;;;;;4.43;1.52;;;0.90;99.90;;;;;;5071269;28;20141;-72
2022/01/31 05:12:21;;;;;;;2.60;1.30;;;0.90;99.90;;;;;;5074017;28;20528;-71
2022/01/31 05:14:46;;;;;;;2.90;1.20;;;0.90;99.90;;;;;;5071912;28;20135;-71
2022/01/31 05:17:12;;;;;;;2.87;1.50;;;0.90;99.90;;;;;;5073204;28;20111;-73
2022/01/31 05:19:38;;;;;;;3.45;1.83;;;0.90;99.90;;;;;;5070499;28;20040;-72
2022/01/31 05:22:04;;;;;;;3.03;1.37;;;0.90;99.90;;;;;;5071833;28;20029;-73
2022/01/31 05:24:30;;;;;;;1.15;0.82;;;0.90;99.90;;;;;;5071354;28;20037;-71
2022/01/31 05:26:56;;;;;;;3.92;1.10;;;0.90;99.90;;;;;;5072881;28;20039;-72
2022/01/31 05:29:22;;;;;;;2.75;1.10;;;0.80;99.90;;;;;;5072726;28;20047;-72
2022/01/31 05:31:48;;;;;;;2.13;1.23;;;0.80;99.90;;;;;;5072366;28;20050;-72
2022/01/31 05:34:15;;;;;;;2.13;1.08;;;0.90;99.90;;;;;;5071843;28;20111;-74
2022/01/31 05:36:41;;;;;;;3.28;1.10;;;0.90;99.90;;;;;;5072957;28;20028;-73
2022/01/31 05:39:08;;;;;;;4.63;1.50;;;0.80;99.90;;;;;;5088052;28;20024;-73
2022/01/31 05:41:34;;;;;;;2.72;1.40;;;0.80;99.90;;;;;;5072681;28;20048;-73
2022/01/31 05:44:00;;;;;;;2.17;1.20;;;0.80;99.90;;;;;;5072308;28;20034;-64
2022/01/31 05:46:26;;;;;;;3.15;1.38;;;0.80;99.90;;;;;;5072281;28;20038;-65
2022/01/31 05:48:53;;;;;;;3.37;1.80;;;0.80;99.90;;;;;;5072928;28;20366;-65
2022/01/31 05:51:21;;;;;;;3.15;1.50;;;0.90;99.90;;;;;;5073082;28;20039;-65
2022/01/31 05:53:49;;;;;;;2.80;1.40;;;0.80;99.90;;;;;;5072654;28;20036;-67
2022/01/31 05:56:16;;;;;;;7.32;2.83;;;0.90;99.90;;;;;;5071207;28;20388;-65
2022/01/31 05:58:42;;;;;;;5.00;1.67;;;0.90;99.90;;;;;;5072059;28;20029;-65
2022/01/31 06:01:08;;;;;;;3.42;1.30;;;0.90;99.90;;;;;;5071477;28;20141;-65
2022/01/31 06:03:34;;;;;;;2.75;1.63;;;0.80;99.90;;;;;;5072065;28;20029;-65
2022/01/31 06:06:01;;;;;;;3.50;1.50;;;0.80;99.90;;;;;;5071120;28;20068;-65
2022/01/31 06:08:27;;;;;;;3.20;1.30;;;0.80;99.90;;;;;;5073354;28;20055;-65
2022/01/31 06:10:53;;;;;;;2.83;1.40;;;0.80;99.90;;;;;;5072983;28;20513;-64
2022/01/31 06:13:24;;;;;;;1.93;1.03;;;0.80;99.90;;;;;;5073150;28;20035;-65
2022/01/31 06:15:50;;;;;;;4.53;1.83;;;0.90;99.90;;;;;;5071886;28;20131;-66
2022/01/31 06:18:17;;;;;;;7.72;1.70;;;0.80;99.90;;;;;;5071708;28;20115;-65
2022/01/31 06:20:44;;;;;;;5.45;2.15;;;0.80;99.90;;;;;;5070990;28;20040;-65
2022/01/31 06:23:10;;;;;;;5.05;1.80;;;0.80;99.90;;;;;;5072047;28;20063;-65
2022/01/31 06:25:36;;;;;;;5.07;2.38;;;0.90;99.90;;;;;;5071346;28;20573;-65
2022/01/31 06:28:06;;;;;;;6.80;2.67;;;0.90;99.90;;;;;;5072001;28;20054;-65
2022/01/31 06:30:33;;;;;;;5.28;2.50;;;0.90;99.90;;;;;;5073077;28;20515;-65
2022/01/31 06:32:58;;;;;;;;;;;0.90;99.90;;;;;;5073420;28;20371;-65
2022/01/31 06:35:25;;;;;;;4.72;2.20;;;0.80;99.90;;;;;;5069617;28;19915;-66
2022/01/31 06:37:51;;;;;;;5.22;2.42;;;0.80;99.90;;;;;;5071699;28;20039;-65
2022/01/31 06:40:20;;;;;;;;;;;0.80;99.90;;;;;;5071511;28;20082;-66
2022/01/31 06:42:46;;;;;;;6.30;2.75;;;0.80;99.90;;;;;;5071213;28;19909;-65
2022/01/31 06:45:12;;;;;;;5.43;2.30;;;0.80;99.90;;;;;;5071237;28;20059;-66
2022/01/31 06:47:38;;;;;;;4.13;2.05;;;0.80;99.90;;;;;;5072481;28;20078;-66
2022/01/31 06:50:06;;;;;;;4.97;2.70;;;0.80;99.90;;;;;;5072215;28;20041;-65
2022/01/31 06:52:37;;;;;;;5.47;2.30;;;0.70;99.90;;;;;;5072436;28;20269;-65
2022/01/31 06:55:05;;;;;;;4.30;2.03;;;0.70;99.90;;;;;;5070672;28;20139;-66
2022/01/31 06:57:33;;;;;;;6.30;2.00;;;0.80;99.90;;;;;;5071324;28;20028;-66
2022/01/31 07:00:07;;;;;;;6.28;2.85;;;0.80;99.90;;;;;;5070679;28;20467;-65
2022/01/31 07:02:34;;;;;;;6.13;2.75;;;0.80;99.90;;;;;;5071419;28;20025;-65
2022/01/31 07:05:00;;;;;;;6.32;2.72;;;0.90;99.90;;;;;;5070883;28;20213;-66
2022/01/31 07:07:27;;;;;;;5.05;2.30;;;0.80;99.90;;;;;;5072511;28;20089;-65
2022/01/31 07:10:01;;;;;;;3.20;1.92;;;0.90;99.90;;;;;;5071728;28;20060;-65
2022/01/31 07:12:36;;;;;;;4.25;1.92;;;0.90;99.90;;;;;;5071888;28;20036;-66
2022/01/31 07:15:03;;;;;;;5.72;2.50;;;0.80;99.90;;;;;;5070248;28;20033;-65
2022/01/31 07:17:30;;;;;;;7.07;2.78;;;0.90;99.90;;;;;;5071332;28;20029;-65
2022/01/31 07:19:56;;;;;;;3.55;2.00;;;0.90;99.90;;;;;;5070596;28;20101;-66
2022/01/31 07:22:28;;;;;;;6.88;2.85;;;1.00;99.90;;;;;;5070460;28;20033;-66
2022/01/31 07:25:08;;;;;;;5.28;2.17;;;1.00;99.90;;;;;;5071850;28;20048;-64
2022/01/31 07:27:35;;;;;;;6.50;1.92;;;1.00;99.90;;;;;;5072663;28;20388;-67
2022/01/31 07:30:02;;;;;;;6.93;2.67;;;1.00;99.90;;;;;;5071312;28;20028;-65
2022/01/31 07:32:29;;;;;;;4.47;1.90;;;1.10;99.90;;;;;;5071271;28;20107;-64
2022/01/31 07:34:55;;;;;;;;;;;1.30;99.90;;;;;;5070781;28;20077;-64
2022/01/31 07:37:25;;;;;;;4.95;1.80;;;1.40;99.90;;;;;;5070492;28;19916;-64
2022/01/31 07:39:51;;;;;;;2.42;1.40;;;1.40;99.90;;;;;;5070107;28;20028;-64
2022/01/31 07:42:18;;;;;;;3.78;1.65;;;1.40;99.90;;;;;;5070388;28;20410;-65
2022/01/31 07:44:44;;;;;;;2.80;1.10;;;1.40;99.90;;;;;;5071149;28;20083;-65
2022/01/31 07:47:10;;;;;;;2.00;1.10;;;1.30;99.90;;;;;;5071613;28;20488;-66
2022/01/31 07:49:36;;;;;;;3.75;1.70;;;1.30;99.90;;;;;;5067112;28;20056;-65
2022/01/31 07:52:03;;;;;;;4.33;2.37;;;1.40;99.90;;;;;;5069160;28;20032;-65
2022/01/31 07:54:28;;;;;;;5.70;2.63;;;1.30;99.90;;;;;;5062490;28;20037;-64
2022/01/31 07:56:56;;;;;;;4.87;2.13;;;1.40;99.90;;;;;;5071811;28;20028;-64
2022/01/31 07:59:22;;;;;;;5.68;2.13;;;1.40;99.90;;;;;;5073060;28;20301;-65
2022/01/31 08:01:48;;;;;;;4.15;1.60;;;1.40;99.90;;;;;;5072247;28;20429;-64
2022/01/31 08:04:14;;;;;;;5.10;1.90;;;1.40;99.90;;;;;;5078523;28;20586;-64
2022/01/31 08:06:40;;;;;;;4.67;2.47;;;1.30;99.90;;;;;;5085331;28;20051;-64
2022/01/31 08:09:06;;;;;;;5.07;1.57;;;1.30;99.90;;;;;;5068832;28;20086;-65
2022/01/31 08:11:33;;;;;;;3.80;1.70;;;1.30;99.90;;;;;;5070979;28;20070;-66
2022/01/31 08:14:05;;;;;;;4.75;1.65;;;1.30;99.90;;;;;;5061190;28;20029;-67
2022/01/31 08:16:32;;;;;;;2.90;1.60;;;1.40;99.90;;;;;;5054128;28;20474;-63
2022/01/31 08:18:57;;;;;;;3.75;2.00;;;1.40;99.90;;;;;;5079249;28;20033;-64
2022/01/31 08:21:24;;;;;;;7.17;2.30;;;1.40;99.90;;;;;;5072018;28;20047;-64
2022/01/31 08:23:51;;;;;;;6.63;2.35;;;1.40;99.90;;;;;;5069104;28;20552;-63
2022/01/31 08:26:18;;;;;;;4.68;1.80;;;1.30;99.90;;;;;;5066450;28;20060;-64
2022/01/31 08:28:52;;;;;;;3.75;1.42;;;1.30;99.90;;;;;;5065189;28;20730;-65
2022/01/31 08:33:50;;;;;;;5.47;1.95;;;1.30;99.90;;;;;;5063167;28;22044;-66
2022/01/31 08:36:17;;;;;;;3.83;1.80;;;1.40;99.90;;;;;;5065956;28;20436;-66
2022/01/31 08:38:45;;;;;;;6.65;2.45;;;1.30;99.90;;;;;;5067380;28;20017;-66
2022/01/31 08:41:12;;;;;;;3.60;1.92;;;1.40;99.90;;;;;;5066049;28;20479;-65
2022/01/31 08:43:38;;;;;;;2.50;1.38;;;1.40;99.90;;;;;;5062027;28;20031;-66
2022/01/31 08:46:05;;;;;;;;;;;1.40;99.90;;;;;;5065663;28;20021;-66
2022/01/31 08:48:31;;;;;;;2.33;1.17;;;1.50;99.90;;;;;;5061332;28;19912;-66
2022/01/31 08:50:58;;;;;;;3.97;1.60;;;1.50;99.90;;;;;;5064474;28;20032;-68
2022/01/31 08:53:24;;;;;;;3.65;1.38;;;1.60;99.90;;;;;;5067099;28;20044;-67
2022/01/31 08:55:52;;;;;;;2.80;0.90;;;1.60;99.90;;;;;;5064626;28;20024;-65
2022/01/31 08:58:19;;;;;;;2.42;1.20;;;1.50;99.90;;;;;;5070255;28;20483;-66
2022/01/31 09:00:49;;;;;;;;;;;1.50;99.90;;;;;;5067621;28;20024;-64
2022/01/31 09:05:42;;;;;;;3.03;1.38;;;1.40;99.90;;;;;;5067173;28;20088;-65
2022/01/31 09:08:08;;;;;;;3.05;1.70;;;1.40;99.90;;;;;;5065381;28;20463;-66
2022/01/31 09:10:34;;;;;;;2.50;1.30;;;1.40;99.90;;;;;;5063406;28;20037;-66
2022/01/31 09:13:01;;;;;;;1.75;1.13;;;1.40;99.90;;;;;;5069336;28;20028;-66
2022/01/31 09:15:27;;;;;;;2.97;1.38;;;1.30;99.90;;;;;;5066244;28;20032;-66
2022/01/31 09:17:53;;;;;;;3.05;1.75;;;1.40;99.90;;;;;;5066307;28;20033;-65
2022/01/31 09:20:20;;;;;;;2.78;1.38;;;1.40;99.90;;;;;;5066188;28;20496;-66
2022/01/31 09:22:45;;;;;;;;;;;1.30;99.90;;;;;;5067588;28;20112;-66
2022/01/31 09:25:12;;;;;;;4.72;1.50;;;1.30;99.90;;;;;;5068168;28;19916;-65
2022/01/31 09:27:38;;;;;;;3.85;1.70;;;1.30;99.90;;;;;;5064711;28;20024;-69
2022/01/31 09:30:09;;;;;;;5.43;1.80;;;1.30;99.90;;;;;;5062067;28;20036;-67
2022/01/31 09:32:36;;;;;;;4.60;2.00;;;1.30;99.90;;;;;;5064925;28;20368;-66
2022/01/31 09:35:04;;;;;;;5.13;2.22;;;1.40;99.90;;;;;;5069752;28;20033;-67
2022/01/31 09:37:29;;;;;;;4.40;2.13;;;1.40;99.90;;;;;;5070139;28;20035;-65
2022/01/31 09:40:02;;;;;;;5.57;2.10;;;1.40;99.90;;;;;;5069795;28;20032;-66
2022/01/31 09:42:35;;;;;;;7.22;2.35;;;1.40;99.90;;;;;;5059308;28;20033;-67
2022/01/31 09:45:11;;;;;;;4.50;2.10;;;1.40;99.90;;;;;;5067923;28;20025;-66
2022/01/31 09:50:21;;;;;;;8.20;3.08;;;1.30;99.90;;;;;;5067076;28;20068;-65
2022/01/31 09:52:47;;;;;;;9.55;2.67;;;1.40;99.90;;;;;;5061885;28;20036;-66
2022/01/31 09:55:14;;;;;;;5.13;2.10;;;1.40;99.90;;;;;;5062830;28;20036;-66
2022/01/31 09:57:40;;;;;;;3.35;1.65;;;1.50;99.90;;;;;;5064487;28;20059;-64
2022/01/31 10:00:07;;;;;;;3.83;1.55;;;1.50;99.90;;;;;;5063514;28;20117;-64
2022/01/31 10:02:32;;;;;;;6.10;2.63;;;1.50;99.90;;;;;;5090437;28;20032;-64
2022/01/31 10:04:58;;;;;;;6.63;2.13;;;1.50;99.90;;;;;;5062089;28;20040;-65
2022/01/31 10:07:24;;;;;;;6.30;2.10;;;1.50;99.90;;;;;;5058734;28;20025;-64
2022/01/31 10:09:50;;;;;;;8.00;2.47;;;1.50;99.90;;;;;;5064827;28;20090;-65
2022/01/31 10:16:24;;;;;;;7.90;2.60;;;1.40;99.90;;;;;;5059540;28;20510;-64
2022/01/31 10:17:49;;;;;;;4.25;1.92;;;1.30;99.90;;;;;;5057325;28;20533;-65
2022/01/31 10:20:17;;;;;;;5.63;2.37;;;1.40;99.90;;;;;;5061998;28;20028;-64
2022/01/31 10:22:43;;;;;;;6.82;2.35;;;1.40;99.90;;;;;;5059330;28;20064;-67
2022/01/31 10:25:12;;;;;;;36.55;19.67;;;1.40;99.90;;;;;;5059775;28;20071;-64
2022/01/31 10:27:38;;;;;;;6.38;2.75;;;1.40;99.90;;;;;;5058388;28;20058;-67
2022/01/31 10:30:13;;;;;;;3.80;1.88;;;1.50;99.90;;;;;;5063318;28;20075;-67
2022/01/31 10:32:42;;;;;;;4.68;1.60;;;1.40;99.90;;;;;;5063624;28;20060;-66
2022/01/31 10:35:11;;;;;;;7.07;2.35;;;1.40;99.90;;;;;;5064998;28;20040;-66
2022/01/31 10:37:40;;;;;;;4.57;1.73;;;1.40;99.90;;;;;;5059351;28;20364;-64
2022/01/31 10:51:55;;;;;;;3.25;1.55;;;1.50;99.90;;;;;;5058196;28;20672;-67
2022/01/31 10:57:02;;;;;;;4.03;1.48;;;1.60;99.90;;;;;;5057139;28;20111;-64
2022/01/31 10:59:37;;;;;;;8.20;3.80;;;1.60;99.90;;;;;;5049972;28;20123;-65
2022/01/31 11:02:06;;;;;;;5.60;2.40;;;1.50;99.90;;;;;;5059702;28;20060;-65
2022/01/31 11:04:41;;;;;;;4.07;1.80;;;1.70;99.90;;;;;;5062175;28;20036;-65
2022/01/31 11:07:12;;;;;;;5.15;1.95;;;1.70;99.90;;;;;;5063869;28;20025;-64
2022/01/31 11:09:40;;;;;;;3.72;1.40;;;1.70;99.90;;;;;;5063147;28;20041;-66
2022/01/31 11:12:07;;;;;;;3.70;1.70;;;1.70;99.90;;;;;;5078091;28;20039;-64
2022/01/31 11:14:38;;;;;;;3.70;1.40;;;1.60;99.90;;;;;;5062238;28;20032;-65
2022/01/31 11:17:12;;;;;;;3.20;1.10;;;1.50;99.90;;;;;;5058742;28;20025;-65
2022/01/31 11:19:48;;;;;;;4.60;1.65;;;1.50;99.90;;;;;;5061937;28;20119;-64
2022/01/31 11:22:16;;;;;;;5.05;1.35;;;1.40;99.90;;;;;;5060643;28;20020;-65
2022/01/31 11:24:53;;;;;;;3.20;1.30;;;1.40;99.90;;;;;;5066671;28;20519;-64
2022/01/31 11:27:23;;;;;;;3.53;1.50;;;1.30;99.90;;;;;;5067083;28;20403;-63
2022/01/31 11:29:56;;;;;;;2.30;1.20;;;1.30;99.90;;;;;;5062729;28;20082;-64
2022/01/31 11:32:25;;;;;;;4.93;1.83;;;1.40;99.90;;;;;;5061023;28;20025;-65
2022/01/31 11:34:51;;;;;;;3.72;1.67;;;1.50;99.90;;;;;;5068925;28;20039;-66
2022/01/31 11:37:20;;;;;;;1.98;1.30;;;1.60;99.90;;;;;;5066270;28;20082;-67
2022/01/31 11:39:51;;;;;;;2.95;1.30;;;1.60;99.90;;;;;;5065843;28;20025;-64
2022/01/31 11:42:20;;;;;;;3.15;1.40;;;1.60;99.90;;;;;;5066980;28;20108;-64
2022/01/31 11:44:57;;;;;;;3.08;1.30;;;1.70;99.90;;;;;;5055273;28;20041;-66
2022/01/31 11:47:25;;;;;;;7.75;3.10;;;1.70;99.90;;;;;;5058599;28;20057;-64
2022/01/31 11:50:03;;;;;;;4.22;1.80;;;1.80;99.90;;;;;;5058211;28;20059;-64
2022/01/31 11:52:42;;;;;;;6.93;2.28;;;1.90;99.90;;;;;;5060605;28;20542;-65
2022/01/31 11:55:12;;;;;;;2.13;1.30;;;1.90;99.90;;;;;;5060468;28;20559;-65
2022/01/31 11:57:39;;;;;;;2.65;1.50;;;2.10;99.90;;;;;;5063451;28;20055;-64
2022/01/31 12:00:09;;;;;;;4.47;1.30;;;2.10;99.90;;;;;;5064688;28;20040;-63
2022/01/31 12:02:50;;;;;;;2.38;1.55;;;2.00;99.90;;;;;;5062560;28;20029;-64
2022/01/31 12:05:27;;;;;;;2.05;1.20;;;1.90;99.90;;;;;;5059963;28;20048;-63
2022/01/31 12:08:08;;;;;;;3.20;1.70;;;1.70;99.90;;;;;;5065351;28;20029;-64
2022/01/31 12:10:38;;;;;;;2.47;1.00;;;1.60;99.90;;;;;;5068972;28;20093;-65
2022/01/31 12:13:35;;;;;;;4.22;1.23;;;1.60;99.90;;;;;;5062558;28;20033;-67
2022/01/31 12:18:42;;;;;;;5.10;2.15;;;1.50;99.90;;;;;;5062028;28;20037;-65
2022/01/31 12:24:20;;;;;;;2.38;1.10;;;1.60;99.90;;;;;;5065972;28;20039;-66
2022/01/31 12:26:52;;;;;;;2.17;1.20;;;1.60;99.90;;;;;;5064482;28;20922;-64
2022/01/31 12:29:24;;;;;;;2.17;1.00;;;1.70;99.90;;;;;;5056450;28;20045;-65
2022/01/31 12:31:56;;;;;;;3.17;1.25;;;1.70;99.90;;;;;;5060036;28;20452;-66
2022/01/31 12:34:21;;;;;;;2.58;1.38;;;1.80;99.90;;;;;;5068377;28;20556;-62
2022/01/31 12:36:51;;;;;;;3.10;1.37;;;1.80;99.90;;;;;;5064191;28;20035;-66
2022/01/31 12:39:29;;;;;;;2.10;0.90;;;1.80;99.90;;;;;;5065506;28;20117;-64
2022/01/31 12:42:02;;;;;;;2.35;1.08;;;1.90;99.90;;;;;;5058845;28;20028;-64
2022/01/31 12:44:36;;;;;;;3.67;1.55;;;1.90;99.90;;;;;;5063095;28;20480;-64
2022/01/31 12:47:19;;;;;;;1.40;0.95;;;1.80;99.90;;;;;;5059800;28;20506;-63
2022/01/31 12:50:05;;;;;;;3.28;1.20;;;1.80;99.90;;;;;;5063513;28;20335;-64
2022/01/31 12:52:35;;;;;;;2.60;1.38;;;1.90;99.90;;;;;;5063075;28;20397;-64
2022/01/31 12:55:11;;;;;;;6.05;2.00;;;1.90;99.90;;;;;;5065870;28;20882;-63
2022/01/31 12:57:55;;;;;;;6.10;2.00;;;2.00;99.90;;;;;;5063967;28;20058;-65
2022/01/31 13:00:38;;;;;;;5.22;2.20;;;1.90;99.90;;;;;;5061050;28;20446;-66
2022/01/31 13:03:05;;;;;;;4.35;1.92;;;1.90;99.90;;;;;;5061028;28;20658;-64
2022/01/31 13:05:39;;;;;;;3.42;1.45;;;1.80;99.90;;;;;;5063568;28;20178;-64
2022/01/31 13:08:21;;;;;;;3.17;1.60;;;1.70;99.90;;;;;;5066078;28;20028;-65
2022/01/31 13:10:47;;;;;;;2.95;1.30;;;1.60;99.90;;;;;;5062833;28;20040;-65
2022/01/31 13:13:13;;;;;;;2.10;1.03;;;1.50;99.90;;;;;;5061570;28;20041;-65
2022/01/31 13:15:39;;;;;;;2.40;1.20;;;1.40;99.90;;;;;;5065520;28;20041;-65
2022/01/31 13:18:07;;;;;;;3.78;1.83;;;1.40;99.90;;;;;;5064615;28;20455;-64
2022/01/31 13:20:34;;;;;;;1.80;1.15;;;1.40;99.90;;;;;;5066026;28;20041;-64
2022/01/31 13:23:01;;;;;;;5.65;1.67;;;1.40;99.90;;;;;;5061392;28;20055;-66
2022/01/31 13:25:28;;;;;;;2.55;1.50;;;1.30;99.90;;;;;;5059835;28;20037;-67
2022/01/31 13:27:55;;;;;;;2.63;1.08;;;1.30;99.90;;;;;;5060311;28;20377;-63
2022/01/31 13:30:24;;;;;;;4.70;1.20;;;1.10;99.90;;;;;;5063610;28;20040;-63
2022/01/31 13:32:50;;;;;;;23.10;11.60;;;1.10;99.90;;;;;;5059268;28;20761;-64
2022/01/31 13:35:17;;;;;;;7.03;5.00;;;1.20;99.90;;;;;;5056511;28;20032;-66
2022/01/31 13:37:46;;;;;;;1.95;1.23;;;1.20;99.90;;;;;;5064997;28;20109;-64
2022/01/31 13:40:31;;;;;;;2.70;1.38;;;1.20;99.90;;;;;;5061093;28;20519;-64
2022/01/31 13:43:12;;;;;;;3.30;1.52;;;1.10;99.90;;;;;;5064054;28;20036;-70